sensor_id;sensor_type;location;lat;lon;timestamp;pressure;altitude;pressure_sealevel;temperature;humidity
77893;BME280;67087;50.094;14.338;2023-04-15T00:00:13;96573.26;;;25.24;35.91
77893;BME280;67087;50.094;14.338;2023-04-15T00:02:37;96570.21;;;25.62;35.64
77893;BME280;67087;50.094;14.338;2023-04-15T00:05:03;96573.39;;;25.37;35.73
77893;BME280;67087;50.094;14.338;2023-04-15T00:07:28;96573.59;;;25.65;35.76
77893;BME280;67087;50.094;14.338;2023-04-15T00:09:53;96573.05;;;25.37;35.70
77893;BME280;67087;50.094;14.338;2023-04-15T00:12:18;96572.51;;;25.61;35.68
77893;BME280;67087;50.094;14.338;2023-04-15T00:14:43;96570.63;;;25.53;35.71
77893;BME280;67087;50.094;14.338;2023-04-15T00:17:08;96567.69;;;25.47;35.57
77893;BME280;67087;50.094;14.338;2023-04-15T00:19:34;96564.00;;;25.19;35.72
77893;BME280;67087;50.094;14.338;2023-04-15T00:21:59;96562.40;;;25.39;35.75
77893;BME280;67087;50.094;14.338;2023-04-15T00:24:24;96557.21;;;25.45;35.57
77893;BME280;67087;50.094;14.338;2023-04-15T00:26:49;96555.52;;;25.54;35.89
77893;BME280;67087;50.094;14.338;2023-04-15T00:29:14;96552.30;;;25.56;35.78
77893;BME280;67087;50.094;14.338;2023-04-15T00:31:39;96554.72;;;25.52;35.78
77893;BME280;67087;50.094;14.338;2023-04-15T00:34:04;96560.64;;;25.67;35.50
77893;BME280;67087;50.094;14.338;2023-04-15T00:36:30;96552.27;;;25.38;35.59
77893;BME280;67087;50.094;14.338;2023-04-15T00:38:55;96561.56;;;25.65;35.57
77893;BME280;67087;50.094;14.338;2023-04-15T00:41:20;96558.10;;;25.72;35.52
77893;BME280;67087;50.094;14.338;2023-04-15T00:43:45;96556.07;;;25.32;35.55
77893;BME280;67087;50.094;14.338;2023-04-15T00:46:12;96548.98;;;25.71;35.48
77893;BME280;67087;50.094;14.338;2023-04-15T00:48:35;96543.37;;;25.66;35.47
77893;BME280;67087;50.094;14.338;2023-04-15T00:51:00;96542.34;;;25.20;35.46
77893;BME280;67087;50.094;14.338;2023-04-15T00:53:25;96536.61;;;25.43;35.35
77893;BME280;67087;50.094;14.338;2023-04-15T00:55:50;96537.28;;;25.43;35.43
77893;BME280;67087;50.094;14.338;2023-04-15T00:58:16;96537.30;;;25.50;35.27
77893;BME280;67087;50.094;14.338;2023-04-15T01:00:41;96540.72;;;25.51;35.24
77893;BME280;67087;50.094;14.338;2023-04-15T01:03:06;96536.78;;;25.40;35.35
77893;BME280;67087;50.094;14.338;2023-04-15T01:05:31;96534.43;;;25.08;35.62
77893;BME280;67087;50.094;14.338;2023-04-15T01:07:56;96534.57;;;25.25;35.52
77893;BME280;67087;50.094;14.338;2023-04-15T01:10:21;96543.73;;;25.46;35.70
77893;BME280;67087;50.094;14.338;2023-04-15T01:12:46;96537.17;;;24.94;35.59
77893;BME280;67087;50.094;14.338;2023-04-15T01:15:11;96536.78;;;25.52;35.54
77893;BME280;67087;50.094;14.338;2023-04-15T01:17:38;96536.18;;;25.43;35.68
77893;BME280;67087;50.094;14.338;2023-04-15T01:20:02;96536.84;;;25.21;35.68
77893;BME280;67087;50.094;14.338;2023-04-15T01:22:27;96536.26;;;25.48;35.62
77893;BME280;67087;50.094;14.338;2023-04-15T01:24:56;96531.42;;;25.22;35.59
77893;BME280;67087;50.094;14.338;2023-04-15T01:27:17;96524.23;;;25.37;35.69
77893;BME280;67087;50.094;14.338;2023-04-15T01:29:42;96521.91;;;25.06;35.76
77893;BME280;67087;50.094;14.338;2023-04-15T01:32:07;96524.42;;;25.28;35.77
77893;BME280;67087;50.094;14.338;2023-04-15T01:34:32;96515.52;;;25.21;35.82
77893;BME280;67087;50.094;14.338;2023-04-15T01:36:57;96519.46;;;25.18;35.88
77893;BME280;67087;50.094;14.338;2023-04-15T01:39:22;96520.97;;;25.42;35.95
77893;BME280;67087;50.094;14.338;2023-04-15T01:41:47;96526.42;;;25.13;35.95
77893;BME280;67087;50.094;14.338;2023-04-15T01:44:13;96519.51;;;25.13;35.95
77893;BME280;67087;50.094;14.338;2023-04-15T01:46:38;96524.02;;;25.08;36.04
77893;BME280;67087;50.094;14.338;2023-04-15T01:49:03;96523.90;;;24.74;36.23
77893;BME280;67087;50.094;14.338;2023-04-15T01:51:28;96531.50;;;25.42;36.32
77893;BME280;67087;50.094;14.338;2023-04-15T01:53:53;96537.07;;;24.96;36.26
77893;BME280;67087;50.094;14.338;2023-04-15T01:56:18;96540.03;;;24.97;36.31
77893;BME280;67087;50.094;14.338;2023-04-15T01:58:43;96538.38;;;24.92;36.32
77893;BME280;67087;50.094;14.338;2023-04-15T02:01:08;96537.16;;;24.88;36.42
77893;BME280;67087;50.094;14.338;2023-04-15T02:03:34;96539.60;;;24.80;36.40
77893;BME280;67087;50.094;14.338;2023-04-15T02:05:59;96543.08;;;24.76;36.54
77893;BME280;67087;50.094;14.338;2023-04-15T02:08:24;96542.96;;;25.07;36.39
77893;BME280;67087;50.094;14.338;2023-04-15T02:10:49;96550.86;;;24.83;36.47
77893;BME280;67087;50.094;14.338;2023-04-15T02:13:14;96544.98;;;24.83;36.50
77893;BME280;67087;50.094;14.338;2023-04-15T02:15:39;96555.17;;;24.75;36.54
77893;BME280;67087;50.094;14.338;2023-04-15T02:18:04;96560.51;;;25.14;36.39
77893;BME280;67087;50.094;14.338;2023-04-15T02:20:30;96552.87;;;24.81;36.43
77893;BME280;67087;50.094;14.338;2023-04-15T02:22:55;96551.79;;;24.97;36.54
77893;BME280;67087;50.094;14.338;2023-04-15T02:25:20;96555.19;;;24.78;36.56
77893;BME280;67087;50.094;14.338;2023-04-15T02:27:45;96555.75;;;25.24;36.59
77893;BME280;67087;50.094;14.338;2023-04-15T02:30:10;96557.07;;;24.81;36.60
77893;BME280;67087;50.094;14.338;2023-04-15T02:32:35;96559.01;;;24.74;36.62
77893;BME280;67087;50.094;14.338;2023-04-15T02:35:02;96556.63;;;24.80;36.55
77893;BME280;67087;50.094;14.338;2023-04-15T02:37:25;96551.76;;;24.64;36.77
77893;BME280;67087;50.094;14.338;2023-04-15T02:39:50;96551.21;;;24.77;36.59
77893;BME280;67087;50.094;14.338;2023-04-15T02:42:15;96556.03;;;24.62;36.69
77893;BME280;67087;50.094;14.338;2023-04-15T02:44:41;96556.74;;;24.72;36.56
77893;BME280;67087;50.094;14.338;2023-04-15T02:47:06;96555.79;;;24.91;36.67
77893;BME280;67087;50.094;14.338;2023-04-15T02:49:31;96562.42;;;25.05;37.07
77893;BME280;67087;50.094;14.338;2023-04-15T02:51:56;96564.96;;;25.06;36.94
77893;BME280;67087;50.094;14.338;2023-04-15T02:54:21;96561.31;;;24.62;37.18
77893;BME280;67087;50.094;14.338;2023-04-15T02:56:46;96561.35;;;24.85;37.08
77893;BME280;67087;50.094;14.338;2023-04-15T02:59:12;96560.11;;;25.08;36.96
77893;BME280;67087;50.094;14.338;2023-04-15T03:01:37;96565.61;;;24.81;36.95
77893;BME280;67087;50.094;14.338;2023-04-15T03:04:02;96561.67;;;24.87;36.76
77893;BME280;67087;50.094;14.338;2023-04-15T03:06:27;96563.91;;;25.10;36.85
77893;BME280;67087;50.094;14.338;2023-04-15T03:08:52;96565.72;;;24.86;36.75
77893;BME280;67087;50.094;14.338;2023-04-15T03:11:19;96565.39;;;25.08;36.81
77893;BME280;67087;50.094;14.338;2023-04-15T03:13:42;96558.94;;;24.90;36.72
77893;BME280;67087;50.094;14.338;2023-04-15T03:16:07;96561.29;;;24.55;36.89
77893;BME280;67087;50.094;14.338;2023-04-15T03:18:32;96558.60;;;24.47;36.97
77893;BME280;67087;50.094;14.338;2023-04-15T03:20:58;96555.32;;;24.74;36.97
77893;BME280;67087;50.094;14.338;2023-04-15T03:23:23;96553.80;;;24.63;36.73
77893;BME280;67087;50.094;14.338;2023-04-15T03:25:48;96559.78;;;24.82;36.82
77893;BME280;67087;50.094;14.338;2023-04-15T03:28:13;96564.12;;;24.76;36.87
77893;BME280;67087;50.094;14.338;2023-04-15T03:30:38;96559.66;;;24.53;36.85
77893;BME280;67087;50.094;14.338;2023-04-15T03:33:03;96563.32;;;24.77;36.95
77893;BME280;67087;50.094;14.338;2023-04-15T03:35:29;96567.06;;;24.86;36.86
77893;BME280;67087;50.094;14.338;2023-04-15T03:37:53;96569.91;;;25.06;36.89
77893;BME280;67087;50.094;14.338;2023-04-15T03:40:20;96565.74;;;24.85;36.85
77893;BME280;67087;50.094;14.338;2023-04-15T03:42:44;96565.67;;;24.96;37.03
77893;BME280;67087;50.094;14.338;2023-04-15T03:45:10;96567.24;;;24.97;36.99
77893;BME280;67087;50.094;14.338;2023-04-15T03:47:34;96569.62;;;24.50;37.04
77893;BME280;67087;50.094;14.338;2023-04-15T03:49:59;96570.31;;;24.96;36.92
77893;BME280;67087;50.094;14.338;2023-04-15T03:52:24;96575.59;;;25.03;36.95
77893;BME280;67087;50.094;14.338;2023-04-15T03:54:49;96567.69;;;24.97;36.89
77893;BME280;67087;50.094;14.338;2023-04-15T03:57:14;96568.15;;;24.72;36.93
77893;BME280;67087;50.094;14.338;2023-04-15T03:59:40;96572.00;;;24.72;37.06
77893;BME280;67087;50.094;14.338;2023-04-15T04:02:05;96573.36;;;24.43;37.06
77893;BME280;67087;50.094;14.338;2023-04-15T04:04:30;96574.34;;;24.67;37.18
77893;BME280;67087;50.094;14.338;2023-04-15T04:06:55;96578.98;;;24.65;37.17
77893;BME280;67087;50.094;14.338;2023-04-15T04:09:20;96572.50;;;24.90;37.12
77893;BME280;67087;50.094;14.338;2023-04-15T04:11:45;96577.19;;;24.79;37.26
77893;BME280;67087;50.094;14.338;2023-04-15T04:14:10;96585.74;;;24.89;37.17
77893;BME280;67087;50.094;14.338;2023-04-15T04:16:35;96585.41;;;24.94;37.15
77893;BME280;67087;50.094;14.338;2023-04-15T04:19:01;96584.79;;;25.00;36.99
77893;BME280;67087;50.094;14.338;2023-04-15T04:21:26;96589.63;;;24.70;37.05
77893;BME280;67087;50.094;14.338;2023-04-15T04:23:51;96593.04;;;24.33;37.16
77893;BME280;67087;50.094;14.338;2023-04-15T04:26:16;96607.35;;;24.96;36.97
77893;BME280;67087;50.094;14.338;2023-04-15T04:28:41;96615.62;;;24.87;37.09
77893;BME280;67087;50.094;14.338;2023-04-15T04:31:06;96618.97;;;24.84;37.26
77893;BME280;67087;50.094;14.338;2023-04-15T04:33:31;96634.10;;;24.09;37.35
77893;BME280;67087;50.094;14.338;2023-04-15T04:35:56;96638.11;;;24.72;37.36
77893;BME280;67087;50.094;14.338;2023-04-15T04:38:22;96646.84;;;24.89;37.28
77893;BME280;67087;50.094;14.338;2023-04-15T04:40:47;96648.68;;;24.71;37.50
77893;BME280;67087;50.094;14.338;2023-04-15T04:43:12;96647.55;;;24.71;37.52
77893;BME280;67087;50.094;14.338;2023-04-15T04:45:37;96651.67;;;24.47;37.58
77893;BME280;67087;50.094;14.338;2023-04-15T04:48:02;96659.68;;;24.81;37.38
77893;BME280;67087;50.094;14.338;2023-04-15T04:50:27;96659.83;;;25.35;37.01
77893;BME280;67087;50.094;14.338;2023-04-15T04:52:52;96663.94;;;25.22;37.30
77893;BME280;67087;50.094;14.338;2023-04-15T04:55:18;96661.69;;;25.02;37.57
77893;BME280;67087;50.094;14.338;2023-04-15T04:57:43;96668.23;;;24.82;37.35
77893;BME280;67087;50.094;14.338;2023-04-15T05:00:09;96679.42;;;25.27;37.06
77893;BME280;67087;50.094;14.338;2023-04-15T05:02:33;96684.72;;;24.56;37.18
77893;BME280;67087;50.094;14.338;2023-04-15T05:04:58;96687.20;;;24.39;37.87
77893;BME280;67087;50.094;14.338;2023-04-15T05:07:23;96687.77;;;25.16;37.47
77893;BME280;67087;50.094;14.338;2023-04-15T05:09:48;96686.91;;;25.40;36.73
77893;BME280;67087;50.094;14.338;2023-04-15T05:12:13;96688.67;;;25.50;36.31
77893;BME280;67087;50.094;14.338;2023-04-15T05:14:38;96686.35;;;25.43;36.49
77893;BME280;67087;50.094;14.338;2023-04-15T05:17:04;96687.89;;;25.44;37.09
77893;BME280;67087;50.094;14.338;2023-04-15T05:19:29;96689.94;;;24.81;37.07
77893;BME280;67087;50.094;14.338;2023-04-15T05:21:54;96695.97;;;25.13;37.15
77893;BME280;67087;50.094;14.338;2023-04-15T05:24:19;96699.46;;;25.24;37.51
77893;BME280;67087;50.094;14.338;2023-04-15T05:26:44;96702.16;;;25.15;37.40
77893;BME280;67087;50.094;14.338;2023-04-15T05:29:09;96707.48;;;25.51;37.12
77893;BME280;67087;50.094;14.338;2023-04-15T05:31:35;96711.52;;;24.66;37.60
77893;BME280;67087;50.094;14.338;2023-04-15T05:33:59;96712.39;;;25.13;37.07
77893;BME280;67087;50.094;14.338;2023-04-15T05:36:25;96712.90;;;25.03;37.01
77893;BME280;67087;50.094;14.338;2023-04-15T05:38:50;96716.08;;;25.22;37.16
77893;BME280;67087;50.094;14.338;2023-04-15T05:41:15;96708.73;;;25.21;36.85
77893;BME280;67087;50.094;14.338;2023-04-15T05:43:40;96714.68;;;25.32;36.03
77893;BME280;67087;50.094;14.338;2023-04-15T05:46:05;96727.27;;;25.20;37.16
77893;BME280;67087;50.094;14.338;2023-04-15T05:48:30;96727.56;;;25.52;36.40
77893;BME280;67087;50.094;14.338;2023-04-15T05:50:55;96734.20;;;25.24;37.09
77893;BME280;67087;50.094;14.338;2023-04-15T05:53:20;96735.59;;;25.80;36.52
77893;BME280;67087;50.094;14.338;2023-04-15T05:55:46;96735.21;;;25.95;36.30
77893;BME280;67087;50.094;14.338;2023-04-15T05:58:11;96741.50;;;25.41;37.13
77893;BME280;67087;50.094;14.338;2023-04-15T06:00:36;96750.15;;;25.59;36.63
77893;BME280;67087;50.094;14.338;2023-04-15T06:03:01;96749.68;;;25.49;36.96
77893;BME280;67087;50.094;14.338;2023-04-15T06:05:26;96747.71;;;25.96;36.49
77893;BME280;67087;50.094;14.338;2023-04-15T06:07:51;96750.12;;;25.78;36.55
77893;BME280;67087;50.094;14.338;2023-04-15T06:10:17;96757.14;;;25.59;37.15
77893;BME280;67087;50.094;14.338;2023-04-15T06:12:42;96757.89;;;26.01;38.01
77893;BME280;67087;50.094;14.338;2023-04-15T06:15:07;96750.75;;;25.89;38.82
77893;BME280;67087;50.094;14.338;2023-04-15T06:17:32;96757.37;;;25.12;39.31
77893;BME280;67087;50.094;14.338;2023-04-15T06:19:58;96761.77;;;26.20;38.51
77893;BME280;67087;50.094;14.338;2023-04-15T06:22:23;96765.87;;;26.15;38.02
77893;BME280;67087;50.094;14.338;2023-04-15T06:24:48;96768.57;;;25.89;38.64
77893;BME280;67087;50.094;14.338;2023-04-15T06:27:13;96769.24;;;25.56;39.17
77893;BME280;67087;50.094;14.338;2023-04-15T06:29:38;96772.79;;;25.83;38.68
77893;BME280;67087;50.094;14.338;2023-04-15T06:32:03;96768.52;;;25.58;39.08
77893;BME280;67087;50.094;14.338;2023-04-15T06:34:28;96770.68;;;25.48;39.12
77893;BME280;67087;50.094;14.338;2023-04-15T06:36:53;96775.25;;;25.47;39.46
77893;BME280;67087;50.094;14.338;2023-04-15T06:39:18;96777.91;;;25.99;39.63
77893;BME280;67087;50.094;14.338;2023-04-15T06:41:44;96776.87;;;26.03;38.44
77893;BME280;67087;50.094;14.338;2023-04-15T06:44:09;96779.04;;;25.66;39.28
77893;BME280;67087;50.094;14.338;2023-04-15T06:46:34;96772.39;;;25.85;39.12
77893;BME280;67087;50.094;14.338;2023-04-15T06:48:59;96772.24;;;26.20;38.60
77893;BME280;67087;50.094;14.338;2023-04-15T06:51:24;96778.94;;;26.39;38.26
77893;BME280;67087;50.094;14.338;2023-04-15T06:53:49;96782.21;;;25.42;39.23
77893;BME280;67087;50.094;14.338;2023-04-15T06:56:15;96784.34;;;25.61;39.58
77893;BME280;67087;50.094;14.338;2023-04-15T06:58:40;96785.89;;;25.42;39.84
77893;BME280;67087;50.094;14.338;2023-04-15T07:01:05;96787.39;;;25.69;39.43
77893;BME280;67087;50.094;14.338;2023-04-15T07:03:31;96791.62;;;25.79;39.00
77893;BME280;67087;50.094;14.338;2023-04-15T07:05:55;96794.32;;;26.13;38.31
77893;BME280;67087;50.094;14.338;2023-04-15T07:08:21;96790.35;;;25.71;39.15
77893;BME280;67087;50.094;14.338;2023-04-15T07:10:46;96792.14;;;25.56;39.38
77893;BME280;67087;50.094;14.338;2023-04-15T07:13:11;96799.30;;;25.31;40.12
77893;BME280;67087;50.094;14.338;2023-04-15T07:15:36;96807.79;;;25.40;39.58
77893;BME280;67087;50.094;14.338;2023-04-15T07:18:02;96805.61;;;25.27;39.66
77893;BME280;67087;50.094;14.338;2023-04-15T07:20:27;96803.47;;;25.22;39.57
77893;BME280;67087;50.094;14.338;2023-04-15T07:22:52;96803.94;;;25.27;39.19
77893;BME280;67087;50.094;14.338;2023-04-15T07:25:17;96808.76;;;25.27;39.35
77893;BME280;67087;50.094;14.338;2023-04-15T07:27:42;96818.41;;;25.02;39.23
77893;BME280;67087;50.094;14.338;2023-04-15T07:30:08;96823.31;;;25.06;39.08
77893;BME280;67087;50.094;14.338;2023-04-15T07:32:32;96823.80;;;25.06;39.12
77893;BME280;67087;50.094;14.338;2023-04-15T07:34:57;96828.31;;;24.72;39.20
77893;BME280;67087;50.094;14.338;2023-04-15T07:37:23;96830.72;;;24.84;39.14
77893;BME280;67087;50.094;14.338;2023-04-15T07:39:48;96833.25;;;25.00;38.88
77893;BME280;67087;50.094;14.338;2023-04-15T07:42:13;96834.30;;;24.97;38.86
77893;BME280;67087;50.094;14.338;2023-04-15T07:44:38;96834.90;;;24.89;38.93
77893;BME280;67087;50.094;14.338;2023-04-15T07:47:03;96834.84;;;24.85;38.80
77893;BME280;67087;50.094;14.338;2023-04-15T07:49:29;96833.43;;;24.80;38.79
77893;BME280;67087;50.094;14.338;2023-04-15T07:51:53;96839.72;;;25.01;38.53
77893;BME280;67087;50.094;14.338;2023-04-15T07:54:18;96840.23;;;24.98;38.54
77893;BME280;67087;50.094;14.338;2023-04-15T07:56:43;96841.25;;;25.00;38.44
77893;BME280;67087;50.094;14.338;2023-04-15T07:59:09;96840.51;;;24.98;38.41
77893;BME280;67087;50.094;14.338;2023-04-15T08:01:34;96838.21;;;24.92;38.41
77893;BME280;67087;50.094;14.338;2023-04-15T08:03:59;96843.02;;;24.98;38.25
77893;BME280;67087;50.094;14.338;2023-04-15T08:06:24;96848.86;;;25.11;38.06
77893;BME280;67087;50.094;14.338;2023-04-15T08:08:49;96852.69;;;24.86;38.03
77893;BME280;67087;50.094;14.338;2023-04-15T08:11:14;96855.06;;;25.11;37.90
77893;BME280;67087;50.094;14.338;2023-04-15T08:13:39;96856.14;;;25.08;37.88
77893;BME280;67087;50.094;14.338;2023-04-15T08:16:15;96857.38;;;24.89;37.82
77893;BME280;67087;50.094;14.338;2023-04-15T08:18:30;96863.82;;;24.84;37.83
77893;BME280;67087;50.094;14.338;2023-04-15T08:20:55;96864.97;;;25.09;37.75
77893;BME280;67087;50.094;14.338;2023-04-15T08:23:20;96866.41;;;24.94;37.56
77893;BME280;67087;50.094;14.338;2023-04-15T08:25:45;96865.27;;;24.91;37.60
77893;BME280;67087;50.094;14.338;2023-04-15T08:28:10;96865.59;;;24.85;37.57
77893;BME280;67087;50.094;14.338;2023-04-15T08:30:35;96867.30;;;25.28;37.35
77893;BME280;67087;50.094;14.338;2023-04-15T08:33:00;96875.19;;;25.20;37.37
77893;BME280;67087;50.094;14.338;2023-04-15T08:35:25;96878.48;;;24.97;37.31
77893;BME280;67087;50.094;14.338;2023-04-15T08:37:50;96880.42;;;25.24;37.21
77893;BME280;67087;50.094;14.338;2023-04-15T08:40:16;96881.72;;;25.18;37.26
77893;BME280;67087;50.094;14.338;2023-04-15T08:42:43;96891.89;;;25.18;37.21
77893;BME280;67087;50.094;14.338;2023-04-15T08:45:08;96893.46;;;24.98;37.13
77893;BME280;67087;50.094;14.338;2023-04-15T08:47:32;96890.61;;;24.92;37.25
77893;BME280;67087;50.094;14.338;2023-04-15T08:49:57;96892.67;;;24.91;37.13
77893;BME280;67087;50.094;14.338;2023-04-15T08:52:21;96891.43;;;25.20;37.12
77893;BME280;67087;50.094;14.338;2023-04-15T08:54:47;96891.46;;;25.14;37.10
77893;BME280;67087;50.094;14.338;2023-04-15T08:57:13;96892.64;;;24.98;37.08
77893;BME280;67087;50.094;14.338;2023-04-15T08:59:37;96892.04;;;25.01;36.94
77893;BME280;67087;50.094;14.338;2023-04-15T09:02:03;96900.56;;;25.38;36.70
77893;BME280;67087;50.094;14.338;2023-04-15T09:04:27;96900.95;;;25.22;36.91
77893;BME280;67087;50.094;14.338;2023-04-15T09:06:52;96905.89;;;25.25;36.89
77893;BME280;67087;50.094;14.338;2023-04-15T09:09:17;96904.74;;;25.13;36.70
77893;BME280;67087;50.094;14.338;2023-04-15T09:11:43;96906.86;;;24.96;36.87
77893;BME280;67087;50.094;14.338;2023-04-15T09:14:08;96904.22;;;25.12;36.96
77893;BME280;67087;50.094;14.338;2023-04-15T09:18:58;96902.91;;;25.14;36.91
77893;BME280;67087;50.094;14.338;2023-04-15T09:21:23;96902.25;;;24.99;36.80
77893;BME280;67087;50.094;14.338;2023-04-15T09:23:54;96906.38;;;25.22;36.74
77893;BME280;67087;50.094;14.338;2023-04-15T09:26:15;96912.11;;;25.26;36.65
77893;BME280;67087;50.094;14.338;2023-04-15T09:28:41;96911.75;;;25.14;36.48
77893;BME280;67087;50.094;14.338;2023-04-15T09:31:03;96913.04;;;25.17;36.69
77893;BME280;67087;50.094;14.338;2023-04-15T09:33:29;96916.50;;;25.28;36.59
77893;BME280;67087;50.094;14.338;2023-04-15T09:35:59;96917.36;;;24.92;36.76
77893;BME280;67087;50.094;14.338;2023-04-15T09:38:19;96918.08;;;24.86;36.72
77893;BME280;67087;50.094;14.338;2023-04-15T09:40:44;96917.76;;;24.99;36.60
77893;BME280;67087;50.094;14.338;2023-04-15T09:43:09;96922.26;;;25.07;36.73
77893;BME280;67087;50.094;14.338;2023-04-15T09:45:35;96924.52;;;24.97;36.58
77893;BME280;67087;50.094;14.338;2023-04-15T09:50:27;96931.37;;;25.11;36.65
77893;BME280;67087;50.094;14.338;2023-04-15T09:52:49;96932.16;;;25.21;36.47
77893;BME280;67087;50.094;14.338;2023-04-15T09:55:17;96931.04;;;25.18;36.50
77893;BME280;67087;50.094;14.338;2023-04-15T09:57:40;96931.40;;;24.85;36.59
77893;BME280;67087;50.094;14.338;2023-04-15T10:00:07;96932.31;;;25.96;23.72
77893;BME280;67087;50.094;14.338;2023-04-15T10:02:31;96931.35;;;25.54;20.70
77893;BME280;67087;50.094;14.338;2023-04-15T10:04:55;96938.38;;;24.75;26.57
77893;BME280;67087;50.094;14.338;2023-04-15T10:07:20;96941.87;;;25.32;28.69
77893;BME280;67087;50.094;14.338;2023-04-15T10:09:45;96943.96;;;24.92;30.64
77893;BME280;67087;50.094;14.338;2023-04-15T10:12:11;96937.79;;;25.02;31.19
77893;BME280;67087;50.094;14.338;2023-04-15T10:14:37;96943.04;;;24.91;31.32
77893;BME280;67087;50.094;14.338;2023-04-15T10:17:01;96943.92;;;25.07;32.30
77893;BME280;67087;50.094;14.338;2023-04-15T10:19:26;96944.28;;;25.53;32.13
77893;BME280;67087;50.094;14.338;2023-04-15T10:21:51;96947.00;;;25.10;32.68
77893;BME280;67087;50.094;14.338;2023-04-15T10:24:16;96941.55;;;25.91;32.51
77893;BME280;67087;50.094;14.338;2023-04-15T10:26:41;96939.64;;;25.60;33.07
77893;BME280;67087;50.094;14.338;2023-04-15T10:29:07;96940.95;;;25.73;33.52
77893;BME280;67087;50.094;14.338;2023-04-15T10:31:31;96948.85;;;25.06;33.26
77893;BME280;67087;50.094;14.338;2023-04-15T10:33:57;96953.48;;;25.39;33.51
77893;BME280;67087;50.094;14.338;2023-04-15T10:36:22;96960.87;;;25.56;33.71
77893;BME280;67087;50.094;14.338;2023-04-15T10:38:47;96964.93;;;25.59;34.39
77893;BME280;67087;50.094;14.338;2023-04-15T10:41:14;96968.63;;;25.41;34.45
77893;BME280;67087;50.094;14.338;2023-04-15T10:43:37;96968.50;;;25.26;34.18
77893;BME280;67087;50.094;14.338;2023-04-15T10:46:04;96975.26;;;25.74;33.87
77893;BME280;67087;50.094;14.338;2023-04-15T10:48:30;96978.71;;;25.41;34.03
77893;BME280;67087;50.094;14.338;2023-04-15T10:50:56;96977.67;;;25.16;34.07
77893;BME280;67087;50.094;14.338;2023-04-15T10:53:26;96975.15;;;25.65;34.29
77893;BME280;67087;50.094;14.338;2023-04-15T10:55:42;96984.07;;;25.18;34.67
77893;BME280;67087;50.094;14.338;2023-04-15T10:58:09;96977.29;;;25.51;33.75
77893;BME280;67087;50.094;14.338;2023-04-15T11:00:36;96978.30;;;25.96;32.87
77893;BME280;67087;50.094;14.338;2023-04-15T11:02:59;96981.23;;;25.59;33.74
77893;BME280;67087;50.094;14.338;2023-04-15T11:07:50;96990.95;;;25.61;34.33
77893;BME280;67087;50.094;14.338;2023-04-15T11:12:39;97004.19;;;25.34;34.48
77893;BME280;67087;50.094;14.338;2023-04-15T11:17:29;97001.90;;;25.56;34.87
77893;BME280;67087;50.094;14.338;2023-04-15T11:19:54;96999.62;;;25.83;35.03
77893;BME280;67087;50.094;14.338;2023-04-15T11:22:18;97003.73;;;25.46;35.03
77893;BME280;67087;50.094;14.338;2023-04-15T11:24:47;97005.80;;;25.69;34.92
77893;BME280;67087;50.094;14.338;2023-04-15T11:27:09;97003.18;;;25.54;35.57
77893;BME280;67087;50.094;14.338;2023-04-15T11:29:34;97000.67;;;25.52;35.62
77893;BME280;67087;50.094;14.338;2023-04-15T11:32:04;97000.78;;;26.11;35.47
77893;BME280;67087;50.094;14.338;2023-04-15T11:34:24;97006.98;;;25.79;35.77
77893;BME280;67087;50.094;14.338;2023-04-15T11:36:49;97011.00;;;25.99;35.41
77893;BME280;67087;50.094;14.338;2023-04-15T11:39:14;97012.34;;;26.04;35.81
77893;BME280;67087;50.094;14.338;2023-04-15T11:41:40;97016.80;;;25.67;36.00
77893;BME280;67087;50.094;14.338;2023-04-15T11:46:30;97025.37;;;25.62;36.33
77893;BME280;67087;50.094;14.338;2023-04-15T11:48:54;97025.60;;;26.08;35.87
77893;BME280;67087;50.094;14.338;2023-04-15T11:51:20;97028.58;;;25.81;36.42
77893;BME280;67087;50.094;14.338;2023-04-15T11:53:46;97032.44;;;25.39;36.54
77893;BME280;67087;50.094;14.338;2023-04-15T11:56:16;97034.32;;;25.47;36.37
77893;BME280;67087;50.094;14.338;2023-04-15T11:58:36;97035.26;;;25.89;36.15
77893;BME280;67087;50.094;14.338;2023-04-15T12:01:00;97032.28;;;25.80;36.13
77893;BME280;67087;50.094;14.338;2023-04-15T12:03:27;97036.83;;;25.69;36.48
77893;BME280;67087;50.094;14.338;2023-04-15T12:06:04;97036.47;;;25.68;36.47
77893;BME280;67087;50.094;14.338;2023-04-15T12:08:15;97036.76;;;25.35;36.64
77893;BME280;67087;50.094;14.338;2023-04-15T12:10:40;97037.34;;;25.29;36.63
77893;BME280;67087;50.094;14.338;2023-04-15T12:13:06;97037.27;;;25.67;36.51
77893;BME280;67087;50.094;14.338;2023-04-15T12:15:31;97034.73;;;25.41;36.59
77893;BME280;67087;50.094;14.338;2023-04-15T12:17:56;97036.98;;;25.46;36.55
77893;BME280;67087;50.094;14.338;2023-04-15T12:20:24;97042.39;;;25.86;36.53
77893;BME280;67087;50.094;14.338;2023-04-15T12:22:46;97042.68;;;25.99;36.42
77893;BME280;67087;50.094;14.338;2023-04-15T12:25:11;97050.32;;;25.61;36.88
77893;BME280;67087;50.094;14.338;2023-04-15T12:27:36;97053.56;;;25.52;36.67
77893;BME280;67087;50.094;14.338;2023-04-15T12:30:04;97055.61;;;25.43;36.78
77893;BME280;67087;50.094;14.338;2023-04-15T12:32:26;97057.54;;;25.89;36.05
77893;BME280;67087;50.094;14.338;2023-04-15T12:34:52;97058.18;;;25.49;36.22
77893;BME280;67087;50.094;14.338;2023-04-15T12:37:17;97062.74;;;25.62;36.01
77893;BME280;67087;50.094;14.338;2023-04-15T12:39:44;97064.22;;;25.47;36.12
77893;BME280;67087;50.094;14.338;2023-04-15T12:42:08;97068.87;;;25.45;36.54
77893;BME280;67087;50.094;14.338;2023-04-15T12:44:32;97071.53;;;25.13;36.27
77893;BME280;67087;50.094;14.338;2023-04-15T12:46:57;97071.28;;;25.92;35.82
77893;BME280;67087;50.094;14.338;2023-04-15T12:49:23;97070.77;;;25.49;36.50
77893;BME280;67087;50.094;14.338;2023-04-15T12:51:48;97071.19;;;25.69;35.76